createdAt,value
2023-05-12T00:03:48.196Z,1.30
2023-05-12T00:09:54.371Z,0.60
2023-05-12T00:12:58.049Z,0.75
2023-05-12T00:19:04.564Z,0.60
2023-05-12T00:22:07.757Z,0.82
2023-05-12T00:25:10.908Z,0.60
2023-05-12T00:28:14.062Z,0.73
2023-05-12T00:31:17.385Z,1.10
2023-05-12T00:34:20.556Z,0.95
2023-05-12T00:37:23.686Z,0.80
2023-05-12T00:40:26.915Z,0.50
2023-05-12T00:43:30.381Z,0.70
2023-05-12T00:46:33.808Z,0.70
2023-05-12T00:49:37.509Z,0.75
2023-05-12T00:52:40.971Z,1.15
2023-05-12T00:55:45.059Z,1.67
2023-05-12T00:58:48.767Z,1.08
2023-05-12T01:04:55.578Z,0.70
2023-05-12T01:08:01.796Z,0.80
2023-05-12T01:11:05.263Z,1.10
2023-05-12T01:14:08.771Z,0.90
2023-05-12T01:17:15.009Z,1.02
2023-05-12T01:20:20.026Z,0.90
2023-05-12T01:23:30.258Z,1.00
2023-05-12T01:26:34.068Z,1.00
2023-05-12T01:29:38.623Z,0.90
2023-05-12T01:32:42.759Z,0.98
2023-05-12T01:35:46.129Z,0.77
2023-05-12T01:38:49.489Z,0.80
2023-05-12T01:41:52.630Z,1.15
2023-05-12T01:44:56.297Z,0.80
2023-05-12T01:47:59.889Z,0.88
2023-05-12T01:51:03.344Z,1.10
2023-05-12T01:54:06.624Z,0.90
2023-05-12T01:57:13.721Z,0.82
2023-05-12T02:00:17.430Z,1.02
2023-05-12T02:03:23.591Z,1.10
2023-05-12T02:06:27.973Z,0.70
2023-05-12T02:09:31.949Z,1.10
2023-05-12T02:12:37.772Z,0.80
2023-05-12T02:15:40.954Z,1.00
2023-05-12T02:18:44.275Z,0.70
2023-05-12T02:21:47.628Z,1.00
2023-05-12T02:24:51.106Z,0.88
2023-05-12T02:27:54.837Z,0.70
2023-05-12T02:30:59.338Z,0.65
2023-05-12T02:34:06.492Z,0.70
2023-05-12T02:37:10.082Z,0.70
2023-05-12T02:40:13.643Z,0.50
2023-05-12T02:43:16.983Z,0.60
2023-05-12T02:46:20.690Z,0.70
2023-05-12T02:49:24.018Z,0.50
2023-05-12T02:52:27.340Z,0.70
2023-05-12T02:55:30.897Z,0.60
2023-05-12T02:58:34.234Z,1.40
2023-05-12T03:01:37.472Z,0.52
2023-05-12T03:04:41.065Z,0.70
2023-05-12T03:07:44.380Z,0.70
2023-05-12T03:10:47.700Z,0.77
2023-05-12T03:13:51.082Z,0.60
2023-05-12T03:16:54.301Z,0.70
2023-05-12T03:19:57.547Z,0.57
2023-05-12T03:23:00.830Z,0.73
2023-05-12T03:26:04.679Z,0.50
2023-05-12T03:29:08.536Z,0.82
2023-05-12T03:32:11.787Z,0.63
2023-05-12T03:35:15.908Z,0.73
2023-05-12T03:38:19.707Z,0.70
2023-05-12T03:41:23.677Z,0.60
2023-05-12T03:44:26.999Z,0.60
2023-05-12T03:47:30.316Z,0.50
2023-05-12T03:50:33.722Z,0.60
2023-05-12T03:53:36.936Z,0.70
2023-05-12T03:56:40.137Z,0.63
2023-05-12T03:59:44.432Z,0.90
2023-05-12T04:02:48.923Z,0.60
2023-05-12T04:05:52.203Z,0.60
2023-05-12T04:08:55.644Z,0.60
2023-05-12T04:11:59.506Z,0.80
2023-05-12T04:15:03.048Z,1.15
2023-05-12T04:18:06.242Z,0.90
2023-05-12T04:21:09.466Z,0.70
2023-05-12T04:24:12.736Z,0.70
2023-05-12T04:27:16.105Z,0.80
2023-05-12T04:30:20.420Z,0.60
2023-05-12T04:33:25.237Z,0.70
2023-05-12T04:36:28.851Z,0.70
2023-05-12T04:39:32.143Z,0.60
2023-05-12T04:42:36.029Z,1.00
2023-05-12T04:45:39.684Z,0.65
2023-05-12T04:48:44.242Z,0.85
2023-05-12T04:51:47.564Z,0.70
2023-05-12T04:54:50.927Z,0.80
2023-05-12T04:57:54.220Z,0.70
2023-05-12T05:00:58.057Z,0.73
2023-05-12T05:04:01.316Z,0.90
2023-05-12T05:07:04.896Z,0.85
2023-05-12T05:10:09.603Z,0.70
2023-05-12T05:13:13.263Z,0.73
2023-05-12T05:16:17.038Z,0.80
2023-05-12T05:19:31.812Z,0.70
2023-05-12T05:22:44.017Z,0.82
2023-05-12T05:25:47.836Z,0.70
2023-05-12T05:28:51.192Z,0.73
2023-05-12T05:31:54.582Z,0.70
2023-05-12T05:34:58.107Z,0.90
2023-05-12T05:38:01.262Z,0.68
2023-05-12T05:41:05.902Z,0.70
2023-05-12T05:44:09.126Z,0.67
2023-05-12T05:47:12.372Z,1.05
2023-05-12T05:50:15.554Z,0.70
2023-05-12T05:53:19.649Z,0.73
2023-05-12T05:56:23.726Z,0.55
2023-05-12T05:59:27.430Z,1.00
2023-05-12T06:02:30.759Z,0.98
2023-05-12T06:05:36.793Z,1.00
2023-05-12T06:08:40.184Z,0.70
2023-05-12T06:11:43.367Z,1.08
2023-05-12T06:14:46.531Z,0.85
2023-05-12T06:17:50.814Z,0.70
2023-05-12T06:20:54.122Z,1.00
2023-05-12T06:23:57.470Z,0.90
2023-05-12T06:27:00.617Z,1.00
2023-05-12T06:30:04.900Z,1.10
2023-05-12T06:33:08.095Z,0.90
2023-05-12T06:36:11.491Z,0.80
2023-05-12T06:39:14.690Z,0.90
2023-05-12T06:42:19.600Z,0.90
2023-05-12T06:45:27.183Z,0.63
2023-05-12T06:48:30.289Z,0.77
2023-05-12T06:51:34.654Z,1.45
2023-05-12T06:54:38.070Z,1.40
2023-05-12T06:57:42.154Z,1.10
2023-05-12T07:00:45.291Z,1.65
2023-05-12T07:03:48.565Z,0.80
2023-05-12T07:06:52.808Z,0.80
2023-05-12T07:09:55.968Z,1.00
2023-05-12T07:12:59.169Z,0.80
2023-05-12T07:16:03.221Z,0.88
2023-05-12T07:19:09.537Z,0.80
2023-05-12T07:22:13.455Z,0.85
2023-05-12T07:25:16.768Z,1.37
2023-05-12T07:28:19.942Z,1.13
2023-05-12T07:31:23.247Z,1.10
2023-05-12T07:34:26.589Z,0.90
2023-05-12T07:37:29.992Z,1.10
2023-05-12T07:40:33.152Z,1.10
2023-05-12T07:43:36.445Z,1.60
2023-05-12T07:46:39.809Z,1.10
2023-05-12T07:49:43.032Z,1.15
2023-05-12T07:52:53.705Z,0.90
2023-05-12T07:55:56.822Z,1.00
2023-05-12T07:59:00.184Z,0.90
2023-05-12T08:02:03.637Z,1.23
2023-05-12T08:05:07.562Z,1.00
2023-05-12T08:08:17.185Z,0.80
2023-05-12T08:11:20.298Z,1.08
2023-05-12T08:14:23.516Z,1.00
2023-05-12T08:17:29.010Z,1.00
2023-05-12T08:20:32.881Z,0.90
2023-05-12T08:23:38.339Z,0.98
2023-05-12T08:26:41.494Z,0.85
2023-05-12T08:29:44.729Z,1.67
2023-05-12T08:32:47.998Z,1.20
2023-05-12T08:35:51.434Z,1.63
2023-05-12T08:38:56.880Z,1.50
2023-05-12T08:42:14.173Z,0.90
2023-05-12T08:45:17.901Z,1.08
2023-05-12T08:48:22.829Z,1.20
2023-05-12T08:54:30.794Z,1.50
2023-05-12T08:57:34.461Z,1.45
2023-05-12T09:00:40.142Z,1.42
2023-05-12T09:03:43.431Z,1.50
2023-05-12T09:06:47.231Z,1.13
2023-05-12T09:09:55.328Z,1.10
2023-05-12T09:13:04.868Z,1.45
2023-05-12T09:16:12.830Z,1.30
2023-05-12T09:19:21.805Z,1.30
2023-05-12T09:22:42.856Z,1.30
2023-05-12T09:25:47.574Z,2.50
2023-05-12T09:31:58.301Z,1.65
2023-05-12T09:35:07.113Z,1.10
2023-05-12T09:38:15.508Z,1.60
2023-05-12T09:41:24.618Z,0.90
2023-05-12T09:44:31.136Z,1.33
2023-05-12T09:47:38.765Z,1.70
2023-05-12T09:50:47.765Z,1.10
2023-05-12T09:53:51.590Z,1.45
2023-05-12T09:57:01.658Z,1.10
2023-05-12T10:00:07.456Z,1.42
2023-05-12T10:03:19.038Z,1.45
2023-05-12T10:06:42.605Z,1.20
2023-05-12T10:09:49.051Z,1.17
2023-05-12T10:12:52.805Z,1.73
2023-05-12T10:15:59.887Z,2.08
2023-05-12T10:19:07.527Z,1.77
2023-05-12T10:22:16.788Z,10.90
2023-05-12T10:25:20.465Z,2.00
2023-05-12T10:28:23.874Z,2.20
2023-05-12T10:31:28.616Z,0.90
2023-05-12T10:37:38.543Z,1.10
2023-05-12T10:40:54.219Z,1.67
2023-05-12T10:43:57.521Z,1.10
2023-05-12T10:47:01.211Z,1.42
2023-05-12T10:50:04.469Z,1.58
2023-05-12T10:53:10.672Z,1.35
2023-05-12T10:56:14.091Z,1.20
2023-05-12T10:59:28.086Z,1.90
2023-05-12T11:02:34.684Z,1.50
2023-05-12T11:05:40.094Z,1.20
2023-05-12T11:08:46.006Z,1.10
2023-05-12T11:11:51.958Z,0.80
2023-05-12T11:14:55.627Z,1.20
2023-05-12T11:17:58.925Z,1.00
2023-05-12T11:21:10.839Z,1.20
2023-05-12T11:24:14.093Z,1.30
2023-05-12T11:27:23.703Z,3.85
2023-05-12T11:30:30.207Z,1.50
2023-05-12T11:33:33.368Z,1.50
2023-05-12T11:36:40.335Z,1.60
2023-05-12T11:39:43.458Z,2.25
2023-05-12T11:42:53.011Z,2.10
2023-05-12T11:45:57.127Z,1.90
2023-05-12T11:49:01.430Z,2.45
2023-05-12T11:52:05.785Z,2.20
2023-05-12T11:55:09.796Z,2.00
2023-05-12T11:58:27.374Z,3.20
2023-05-12T12:01:30.855Z,1.90
2023-05-12T12:04:42.304Z,2.50
2023-05-12T12:07:45.606Z,2.65
2023-05-12T12:10:49.204Z,2.35
2023-05-12T12:13:57.268Z,2.00
2023-05-12T12:17:01.071Z,2.00
2023-05-12T12:20:04.812Z,1.73
2023-05-12T12:23:08.095Z,2.22
2023-05-12T12:26:11.336Z,2.05
2023-05-12T12:29:15.114Z,2.53
2023-05-12T12:32:18.421Z,2.80
2023-05-12T12:35:21.833Z,2.92
2023-05-12T12:38:25.377Z,3.15
2023-05-12T12:41:28.957Z,2.92
2023-05-12T12:44:32.228Z,3.28
2023-05-12T12:47:35.778Z,3.17
2023-05-12T12:50:39.255Z,2.30
2023-05-12T12:53:44.173Z,4.70
2023-05-12T12:56:47.897Z,5.95
2023-05-12T12:59:51.110Z,6.32
2023-05-12T13:02:54.651Z,3.80
2023-05-12T13:05:58.201Z,2.17
2023-05-12T13:09:02.213Z,2.38
2023-05-12T13:12:06.016Z,2.43
2023-05-12T13:15:11.089Z,3.15
2023-05-12T13:18:15.839Z,2.45
2023-05-12T13:21:19.395Z,1.70
2023-05-12T13:24:22.646Z,2.13
2023-05-12T13:27:25.960Z,2.97
2023-05-12T13:30:30.458Z,2.22
2023-05-12T13:33:34.128Z,3.17
2023-05-12T13:36:37.359Z,2.15
2023-05-12T13:39:40.602Z,4.95
2023-05-12T13:42:43.862Z,2.40
2023-05-12T13:45:47.223Z,2.63
2023-05-12T13:48:52.087Z,1.65
2023-05-12T13:54:58.452Z,2.28
2023-05-12T13:58:01.758Z,2.50
2023-05-12T14:01:06.139Z,1.92
2023-05-12T14:04:12.561Z,2.00
2023-05-12T14:07:16.025Z,4.10
2023-05-12T14:10:19.458Z,1.50
2023-05-12T14:13:22.930Z,1.52
2023-05-12T14:16:26.158Z,1.13
2023-05-12T14:19:29.580Z,1.30
2023-05-12T14:22:33.305Z,1.10
2023-05-12T14:25:36.620Z,1.40
2023-05-12T14:28:39.941Z,1.00
2023-05-12T14:31:43.674Z,2.40
2023-05-12T14:34:47.047Z,3.05
2023-05-12T14:37:50.286Z,1.20
2023-05-12T14:40:53.575Z,1.90
2023-05-12T14:43:56.728Z,1.45
2023-05-12T14:47:00.531Z,1.10
2023-05-12T14:50:03.943Z,1.25
2023-05-12T14:53:07.189Z,1.67
2023-05-12T14:56:10.664Z,1.63
2023-05-12T14:59:13.903Z,1.70
2023-05-12T15:02:17.049Z,1.73
2023-05-12T15:05:20.475Z,2.25
2023-05-12T15:08:25.247Z,3.35
2023-05-12T15:11:28.572Z,1.90
2023-05-12T15:14:31.680Z,2.30
2023-05-12T15:17:35.084Z,2.40
2023-05-12T15:20:39.052Z,2.10
2023-05-12T15:23:44.008Z,1.87
2023-05-12T15:26:48.521Z,2.42
2023-05-12T15:29:52.211Z,2.30
2023-05-12T15:32:55.467Z,2.10
2023-05-12T15:35:58.724Z,2.17
2023-05-12T15:39:03.856Z,1.95
2023-05-12T15:42:07.898Z,2.10
2023-05-12T15:45:11.287Z,1.40
2023-05-12T15:48:14.560Z,1.98
2023-05-12T15:51:18.052Z,1.75
2023-05-12T15:54:22.166Z,1.80
2023-05-12T15:57:25.493Z,1.70
2023-05-12T16:00:28.918Z,1.42
2023-05-12T16:03:32.387Z,1.60
2023-05-12T16:06:35.879Z,2.30
2023-05-12T16:09:39.537Z,1.48
2023-05-12T16:12:42.775Z,2.90
2023-05-12T16:15:46.059Z,1.35
2023-05-12T16:18:49.300Z,1.50
2023-05-12T16:21:52.503Z,1.50
2023-05-12T16:24:57.206Z,1.58
2023-05-12T16:28:00.412Z,1.38
2023-05-12T16:31:04.366Z,1.50
2023-05-12T16:34:07.617Z,1.30
2023-05-12T16:37:10.883Z,1.30
2023-05-12T16:40:15.335Z,1.33
2023-05-12T16:43:18.554Z,1.23
2023-05-12T16:46:21.908Z,1.20
2023-05-12T16:49:25.190Z,1.30
2023-05-12T16:52:28.503Z,1.17
2023-05-12T16:55:31.833Z,1.30
2023-05-12T16:58:38.051Z,1.75
2023-05-12T17:01:41.303Z,1.42
2023-05-12T17:04:45.237Z,1.35
2023-05-12T17:07:48.435Z,1.52
2023-05-12T17:10:52.184Z,1.52
2023-05-12T17:13:56.511Z,1.52
2023-05-12T17:16:59.647Z,1.52
2023-05-12T17:20:03.136Z,1.50
2023-05-12T17:23:06.391Z,1.35
2023-05-12T17:26:09.656Z,0.90
2023-05-12T17:29:12.934Z,2.00
2023-05-12T17:32:16.060Z,2.10
2023-05-12T17:35:19.448Z,1.80
2023-05-12T17:38:24.287Z,1.90
2023-05-12T17:41:29.107Z,1.90
2023-05-12T17:44:33.023Z,2.50
2023-05-12T17:47:36.345Z,1.80
2023-05-12T17:50:40.056Z,2.13
2023-05-12T17:53:43.166Z,2.00
2023-05-12T17:56:49.208Z,2.05
2023-05-12T17:59:52.523Z,1.98
2023-05-12T18:02:57.117Z,3.95
2023-05-12T18:06:00.474Z,8.40
2023-05-12T18:09:04.473Z,4.95
2023-05-12T18:12:08.333Z,4.20
2023-05-12T18:15:12.021Z,3.97
2023-05-12T18:18:15.300Z,4.93
2023-05-12T18:21:18.814Z,3.20
2023-05-12T18:24:22.083Z,5.35
2023-05-12T18:27:25.347Z,5.10
2023-05-12T18:30:28.518Z,3.80
2023-05-12T18:33:31.905Z,2.15
2023-05-12T18:36:35.071Z,3.15
2023-05-12T18:39:38.251Z,4.07
2023-05-12T18:42:41.463Z,2.30
2023-05-12T18:45:44.614Z,1.20
2023-05-12T18:48:49.253Z,1.10
2023-05-12T18:51:52.430Z,1.65
2023-05-12T18:54:55.550Z,1.70
2023-05-12T18:58:01.066Z,2.50
2023-05-12T19:01:05.285Z,2.05
2023-05-12T19:04:10.516Z,2.70
2023-05-12T19:07:16.009Z,2.22
2023-05-12T19:10:19.122Z,1.75
2023-05-12T19:13:22.347Z,1.13
2023-05-12T19:16:25.578Z,1.20
2023-05-12T19:19:28.869Z,1.00
2023-05-12T19:22:32.076Z,0.98
2023-05-12T19:25:36.002Z,0.95
2023-05-12T19:28:39.208Z,1.42
2023-05-12T19:31:42.505Z,1.25
2023-05-12T19:34:45.738Z,1.50
2023-05-12T19:37:49.360Z,1.83
2023-05-12T19:40:52.505Z,1.40
2023-05-12T19:43:56.677Z,1.45
2023-05-12T19:47:05.041Z,1.67
2023-05-12T19:50:08.851Z,1.50
2023-05-12T19:53:11.995Z,1.45
2023-05-12T19:56:15.138Z,1.58
2023-05-12T19:59:19.446Z,1.17
2023-05-12T20:02:22.746Z,1.42
2023-05-12T20:05:26.078Z,1.30
2023-05-12T20:08:29.220Z,1.48
2023-05-12T20:11:32.334Z,1.50
2023-05-12T20:14:36.728Z,1.40
2023-05-12T20:17:40.247Z,1.70
2023-05-12T20:20:43.868Z,1.90
2023-05-12T20:23:47.172Z,1.58
2023-05-12T20:26:50.386Z,1.58
2023-05-12T20:29:53.604Z,1.70
2023-05-12T20:32:56.872Z,1.40
2023-05-12T20:36:01.847Z,1.30
2023-05-12T20:39:05.442Z,1.10
2023-05-12T20:42:10.708Z,3.45
2023-05-12T20:45:14.937Z,1.60
2023-05-12T20:48:18.268Z,1.38
2023-05-12T20:51:22.060Z,1.35
2023-05-12T20:54:25.387Z,1.40
2023-05-12T20:57:29.226Z,1.50
2023-05-12T21:00:32.588Z,1.30
2023-05-12T21:03:36.224Z,1.40
2023-05-12T21:06:39.572Z,1.20
2023-05-12T21:09:42.896Z,1.30
2023-05-12T21:12:46.189Z,1.10
2023-05-12T21:15:49.399Z,1.33
2023-05-12T21:18:52.763Z,1.20
2023-05-12T21:21:55.941Z,1.75
2023-05-12T21:24:59.093Z,1.48
2023-05-12T21:28:02.191Z,1.40
2023-05-12T21:31:05.342Z,1.50
2023-05-12T21:34:08.480Z,1.80
2023-05-12T21:37:12.013Z,1.80
2023-05-12T21:40:15.319Z,1.83
2023-05-12T21:43:18.736Z,1.88
2023-05-12T21:46:22.005Z,1.80
2023-05-12T21:49:26.312Z,1.98
2023-05-12T21:52:29.449Z,2.05
2023-05-12T21:55:32.596Z,1.90
2023-05-12T21:58:35.862Z,1.90
2023-05-12T22:01:39.410Z,2.08
2023-05-12T22:04:42.685Z,1.95
2023-05-12T22:07:45.841Z,1.88
2023-05-12T22:10:49.266Z,2.00
2023-05-12T22:13:52.539Z,2.17
2023-05-12T22:16:56.758Z,2.50
2023-05-12T22:19:59.978Z,2.00
2023-05-12T22:23:03.130Z,2.00
2023-05-12T22:26:06.384Z,2.17
2023-05-12T22:29:09.541Z,2.70
2023-05-12T22:32:12.709Z,2.47
2023-05-12T22:35:16.954Z,2.28
2023-05-12T22:38:20.107Z,2.10
2023-05-12T22:41:23.389Z,2.17
2023-05-12T22:44:26.535Z,2.17
2023-05-12T22:47:29.774Z,2.90
2023-05-12T22:50:32.969Z,3.33
2023-05-12T22:53:37.263Z,2.30
2023-05-12T22:56:40.449Z,2.20
2023-05-12T22:59:43.588Z,2.28
2023-05-12T23:02:46.936Z,2.50
2023-05-12T23:05:50.068Z,3.05
2023-05-12T23:08:53.741Z,2.97
2023-05-12T23:11:56.818Z,2.60
2023-05-12T23:14:59.921Z,2.70
2023-05-12T23:18:03.424Z,2.67
2023-05-12T23:21:07.124Z,2.40
2023-05-12T23:24:10.371Z,1.95
2023-05-12T23:27:13.562Z,2.00
2023-05-12T23:30:16.895Z,2.08
2023-05-12T23:33:20.157Z,2.13
2023-05-12T23:36:23.313Z,2.00
2023-05-12T23:39:26.405Z,2.05
2023-05-12T23:42:29.531Z,2.20
2023-05-12T23:45:33.742Z,1.98
2023-05-12T23:48:38.048Z,1.90
2023-05-12T23:51:41.235Z,1.80
2023-05-12T23:54:44.507Z,1.50
2023-05-12T23:57:47.782Z,1.60
